sensor_id;sensor_type;location;lat;lon;timestamp;P1;durP1;ratioP1;P2;durP2;ratioP2
34775;SDS011;20989;52.566;13.346;2023-03-03T00:01:52;1.20;;;1.20;;
34775;SDS011;20989;52.566;13.346;2023-03-03T00:04:52;1.60;;;1.42;;
34775;SDS011;20989;52.566;13.346;2023-03-03T00:07:54;1.00;;;1.00;;
34775;SDS011;20989;52.566;13.346;2023-03-03T00:10:55;1.17;;;1.08;;
34775;SDS011;20989;52.566;13.346;2023-03-03T00:13:55;1.27;;;1.17;;
34775;SDS011;20989;52.566;13.346;2023-03-03T00:16:56;1.00;;;1.00;;
34775;SDS011;20989;52.566;13.346;2023-03-03T00:20:01;1.30;;;1.20;;
34775;SDS011;20989;52.566;13.346;2023-03-03T00:26:36;1.00;;;1.00;;
34775;SDS011;20989;52.566;13.346;2023-03-03T00:30:00;1.08;;;1.08;;
34775;SDS011;20989;52.566;13.346;2023-03-03T00:32:59;0.95;;;0.95;;
34775;SDS011;20989;52.566;13.346;2023-03-03T00:36:43;1.27;;;1.27;;
34775;SDS011;20989;52.566;13.346;2023-03-03T00:39:32;1.00;;;1.00;;
34775;SDS011;20989;52.566;13.346;2023-03-03T00:42:38;1.17;;;1.17;;
34775;SDS011;20989;52.566;13.346;2023-03-03T00:45:43;1.00;;;1.00;;
34775;SDS011;20989;52.566;13.346;2023-03-03T00:48:45;1.10;;;1.10;;
34775;SDS011;20989;52.566;13.346;2023-03-03T00:51:46;1.00;;;1.00;;
34775;SDS011;20989;52.566;13.346;2023-03-03T00:54:48;1.13;;;1.13;;
34775;SDS011;20989;52.566;13.346;2023-03-03T00:57:49;1.42;;;1.33;;
34775;SDS011;20989;52.566;13.346;2023-03-03T01:00:51;1.20;;;1.20;;
34775;SDS011;20989;52.566;13.346;2023-03-03T01:03:53;1.20;;;1.20;;
34775;SDS011;20989;52.566;13.346;2023-03-03T01:06:53;1.45;;;1.35;;
34775;SDS011;20989;52.566;13.346;2023-03-03T01:09:54;1.00;;;1.00;;
34775;SDS011;20989;52.566;13.346;2023-03-03T01:12:55;1.10;;;1.10;;
34775;SDS011;20989;52.566;13.346;2023-03-03T01:15:57;1.00;;;1.00;;
34775;SDS011;20989;52.566;13.346;2023-03-03T01:18:58;0.98;;;0.98;;
34775;SDS011;20989;52.566;13.346;2023-03-03T01:21:59;0.93;;;0.93;;
34775;SDS011;20989;52.566;13.346;2023-03-03T01:25:00;1.00;;;1.00;;
34775;SDS011;20989;52.566;13.346;2023-03-03T01:28:02;1.08;;;1.08;;
34775;SDS011;20989;52.566;13.346;2023-03-03T01:31:04;1.23;;;1.23;;
34775;SDS011;20989;52.566;13.346;2023-03-03T01:34:05;1.02;;;1.02;;
34775;SDS011;20989;52.566;13.346;2023-03-03T01:37:06;1.15;;;1.15;;
34775;SDS011;20989;52.566;13.346;2023-03-03T01:40:11;1.05;;;1.05;;
34775;SDS011;20989;52.566;13.346;2023-03-03T01:43:31;1.00;;;1.00;;
34775;SDS011;20989;52.566;13.346;2023-03-03T01:49:47;0.90;;;0.90;;
34775;SDS011;20989;52.566;13.346;2023-03-03T01:52:55;0.90;;;0.90;;
34775;SDS011;20989;52.566;13.346;2023-03-03T01:55:59;1.10;;;1.10;;
34775;SDS011;20989;52.566;13.346;2023-03-03T01:59:21;1.13;;;1.13;;
34775;SDS011;20989;52.566;13.346;2023-03-03T02:02:25;1.20;;;1.20;;
34775;SDS011;20989;52.566;13.346;2023-03-03T02:05:28;0.98;;;0.98;;
34775;SDS011;20989;52.566;13.346;2023-03-03T02:08:35;1.13;;;1.13;;
34775;SDS011;20989;52.566;13.346;2023-03-03T02:11:41;1.00;;;1.00;;
34775;SDS011;20989;52.566;13.346;2023-03-03T02:14:43;1.20;;;1.20;;
34775;SDS011;20989;52.566;13.346;2023-03-03T02:17:44;1.23;;;1.10;;
34775;SDS011;20989;52.566;13.346;2023-03-03T02:24:12;0.93;;;0.93;;
34775;SDS011;20989;52.566;13.346;2023-03-03T02:27:27;1.23;;;1.23;;
34775;SDS011;20989;52.566;13.346;2023-03-03T02:30:35;1.20;;;1.20;;
34775;SDS011;20989;52.566;13.346;2023-03-03T02:33:37;1.10;;;1.10;;
34775;SDS011;20989;52.566;13.346;2023-03-03T02:36:38;1.13;;;1.13;;
34775;SDS011;20989;52.566;13.346;2023-03-03T02:39:39;0.98;;;0.98;;
34775;SDS011;20989;52.566;13.346;2023-03-03T02:42:40;1.30;;;1.20;;
34775;SDS011;20989;52.566;13.346;2023-03-03T02:45:43;1.00;;;1.00;;
34775;SDS011;20989;52.566;13.346;2023-03-03T02:48:44;1.00;;;1.00;;
34775;SDS011;20989;52.566;13.346;2023-03-03T02:51:46;0.88;;;0.88;;
34775;SDS011;20989;52.566;13.346;2023-03-03T02:54:46;1.10;;;1.10;;
34775;SDS011;20989;52.566;13.346;2023-03-03T02:57:47;0.90;;;0.90;;
34775;SDS011;20989;52.566;13.346;2023-03-03T03:00:48;1.08;;;1.08;;
34775;SDS011;20989;52.566;13.346;2023-03-03T03:03:48;1.30;;;1.30;;
34775;SDS011;20989;52.566;13.346;2023-03-03T03:06:49;0.93;;;0.93;;
34775;SDS011;20989;52.566;13.346;2023-03-03T03:09:51;0.90;;;0.90;;
34775;SDS011;20989;52.566;13.346;2023-03-03T03:12:51;0.93;;;0.93;;
34775;SDS011;20989;52.566;13.346;2023-03-03T03:15:52;1.42;;;1.33;;
34775;SDS011;20989;52.566;13.346;2023-03-03T03:18:53;1.05;;;1.05;;
34775;SDS011;20989;52.566;13.346;2023-03-03T03:21:54;1.63;;;1.38;;
34775;SDS011;20989;52.566;13.346;2023-03-03T03:24:55;1.15;;;1.15;;
34775;SDS011;20989;52.566;13.346;2023-03-03T03:27:56;1.10;;;1.10;;
34775;SDS011;20989;52.566;13.346;2023-03-03T03:30:57;0.90;;;0.90;;
34775;SDS011;20989;52.566;13.346;2023-03-03T03:33:57;1.20;;;1.20;;
34775;SDS011;20989;52.566;13.346;2023-03-03T03:36:59;1.05;;;1.05;;
34775;SDS011;20989;52.566;13.346;2023-03-03T03:40:00;1.23;;;1.23;;
34775;SDS011;20989;52.566;13.346;2023-03-03T03:43:00;1.00;;;1.00;;
34775;SDS011;20989;52.566;13.346;2023-03-03T03:46:01;0.95;;;0.95;;
34775;SDS011;20989;52.566;13.346;2023-03-03T03:49:02;1.27;;;1.27;;
34775;SDS011;20989;52.566;13.346;2023-03-03T03:52:03;1.00;;;1.00;;
34775;SDS011;20989;52.566;13.346;2023-03-03T03:55:03;1.30;;;1.20;;
34775;SDS011;20989;52.566;13.346;2023-03-03T03:58:04;1.17;;;1.10;;
34775;SDS011;20989;52.566;13.346;2023-03-03T04:01:06;1.23;;;1.23;;
34775;SDS011;20989;52.566;13.346;2023-03-03T04:04:07;1.20;;;1.20;;
34775;SDS011;20989;52.566;13.346;2023-03-03T04:07:08;0.98;;;0.98;;
34775;SDS011;20989;52.566;13.346;2023-03-03T04:10:09;1.10;;;1.10;;
34775;SDS011;20989;52.566;13.346;2023-03-03T04:13:10;1.30;;;1.20;;
34775;SDS011;20989;52.566;13.346;2023-03-03T04:16:11;1.00;;;1.00;;
34775;SDS011;20989;52.566;13.346;2023-03-03T04:19:12;1.10;;;1.00;;
34775;SDS011;20989;52.566;13.346;2023-03-03T04:22:13;0.73;;;0.73;;
34775;SDS011;20989;52.566;13.346;2023-03-03T04:25:15;1.13;;;1.02;;
34775;SDS011;20989;52.566;13.346;2023-03-03T04:28:16;0.95;;;0.95;;
34775;SDS011;20989;52.566;13.346;2023-03-03T04:31:17;1.10;;;1.10;;
34775;SDS011;20989;52.566;13.346;2023-03-03T04:34:19;1.10;;;1.08;;
34775;SDS011;20989;52.566;13.346;2023-03-03T04:37:20;0.90;;;0.90;;
34775;SDS011;20989;52.566;13.346;2023-03-03T04:40:20;1.20;;;1.20;;
34775;SDS011;20989;52.566;13.346;2023-03-03T04:43:21;1.00;;;1.00;;
34775;SDS011;20989;52.566;13.346;2023-03-03T04:46:22;0.93;;;0.93;;
34775;SDS011;20989;52.566;13.346;2023-03-03T04:49:22;1.00;;;1.00;;
34775;SDS011;20989;52.566;13.346;2023-03-03T04:52:23;1.00;;;1.00;;
34775;SDS011;20989;52.566;13.346;2023-03-03T04:55:24;1.20;;;1.20;;
34775;SDS011;20989;52.566;13.346;2023-03-03T04:58:25;1.10;;;1.10;;
34775;SDS011;20989;52.566;13.346;2023-03-03T05:01:25;1.00;;;1.00;;
34775;SDS011;20989;52.566;13.346;2023-03-03T05:04:26;1.25;;;1.15;;
34775;SDS011;20989;52.566;13.346;2023-03-03T05:07:27;0.93;;;0.93;;
34775;SDS011;20989;52.566;13.346;2023-03-03T05:10:27;0.90;;;0.90;;
34775;SDS011;20989;52.566;13.346;2023-03-03T05:13:28;0.90;;;0.90;;
34775;SDS011;20989;52.566;13.346;2023-03-03T05:16:30;0.95;;;0.95;;
34775;SDS011;20989;52.566;13.346;2023-03-03T05:19:30;1.00;;;1.00;;
34775;SDS011;20989;52.566;13.346;2023-03-03T05:22:31;1.10;;;1.10;;
34775;SDS011;20989;52.566;13.346;2023-03-03T05:25:32;1.27;;;1.27;;
34775;SDS011;20989;52.566;13.346;2023-03-03T05:28:33;3.17;;;1.08;;
34775;SDS011;20989;52.566;13.346;2023-03-03T05:31:33;1.00;;;1.00;;
34775;SDS011;20989;52.566;13.346;2023-03-03T05:34:34;0.98;;;0.98;;
34775;SDS011;20989;52.566;13.346;2023-03-03T05:37:34;1.13;;;1.10;;
34775;SDS011;20989;52.566;13.346;2023-03-03T05:40:36;0.95;;;0.95;;
34775;SDS011;20989;52.566;13.346;2023-03-03T05:43:37;1.10;;;1.10;;
34775;SDS011;20989;52.566;13.346;2023-03-03T05:46:37;1.00;;;1.00;;
34775;SDS011;20989;52.566;13.346;2023-03-03T05:49:38;0.95;;;0.95;;
34775;SDS011;20989;52.566;13.346;2023-03-03T05:52:39;0.90;;;0.90;;
34775;SDS011;20989;52.566;13.346;2023-03-03T05:55:40;1.00;;;1.00;;
34775;SDS011;20989;52.566;13.346;2023-03-03T05:58:40;0.80;;;0.80;;
34775;SDS011;20989;52.566;13.346;2023-03-03T06:01:41;1.13;;;1.13;;
34775;SDS011;20989;52.566;13.346;2023-03-03T06:04:42;1.00;;;1.00;;
34775;SDS011;20989;52.566;13.346;2023-03-03T06:07:42;0.90;;;0.90;;
34775;SDS011;20989;52.566;13.346;2023-03-03T06:10:44;0.98;;;0.98;;
34775;SDS011;20989;52.566;13.346;2023-03-03T06:13:44;0.82;;;0.82;;
34775;SDS011;20989;52.566;13.346;2023-03-03T06:16:46;1.08;;;1.08;;
34775;SDS011;20989;52.566;13.346;2023-03-03T06:19:47;0.80;;;0.80;;
34775;SDS011;20989;52.566;13.346;2023-03-03T06:22:47;0.90;;;0.90;;
34775;SDS011;20989;52.566;13.346;2023-03-03T06:25:48;0.98;;;0.98;;
34775;SDS011;20989;52.566;13.346;2023-03-03T06:28:49;0.93;;;0.93;;
34775;SDS011;20989;52.566;13.346;2023-03-03T06:31:53;1.25;;;1.17;;
34775;SDS011;20989;52.566;13.346;2023-03-03T06:34:54;0.90;;;0.90;;
34775;SDS011;20989;52.566;13.346;2023-03-03T06:37:54;1.00;;;1.00;;
34775;SDS011;20989;52.566;13.346;2023-03-03T06:40:55;0.95;;;0.95;;
34775;SDS011;20989;52.566;13.346;2023-03-03T06:51:16;2.08;;;1.17;;
34775;SDS011;20989;52.566;13.346;2023-03-03T06:54:47;2.05;;;1.10;;
34775;SDS011;20989;52.566;13.346;2023-03-03T06:57:50;2.88;;;1.25;;
34775;SDS011;20989;52.566;13.346;2023-03-03T07:00:58;1.23;;;1.13;;
34775;SDS011;20989;52.566;13.346;2023-03-03T07:04:00;0.90;;;0.90;;
34775;SDS011;20989;52.566;13.346;2023-03-03T07:07:21;1.00;;;1.00;;
34775;SDS011;20989;52.566;13.346;2023-03-03T07:10:25;1.20;;;0.90;;
34775;SDS011;20989;52.566;13.346;2023-03-03T07:17:25;4.47;;;1.27;;
34775;SDS011;20989;52.566;13.346;2023-03-03T07:20:30;1.20;;;1.10;;
34775;SDS011;20989;52.566;13.346;2023-03-03T07:23:36;3.15;;;1.05;;
34775;SDS011;20989;52.566;13.346;2023-03-03T07:26:44;4.13;;;1.30;;
34775;SDS011;20989;52.566;13.346;2023-03-03T07:29:46;1.63;;;1.23;;
34775;SDS011;20989;52.566;13.346;2023-03-03T07:32:47;4.72;;;1.40;;
34775;SDS011;20989;52.566;13.346;2023-03-03T07:35:49;1.33;;;1.20;;
34775;SDS011;20989;52.566;13.346;2023-03-03T07:38:56;1.25;;;1.10;;
34775;SDS011;20989;52.566;13.346;2023-03-03T07:45:29;1.10;;;1.10;;
34775;SDS011;20989;52.566;13.346;2023-03-03T07:48:34;0.90;;;0.90;;
34775;SDS011;20989;52.566;13.346;2023-03-03T07:51:37;1.38;;;1.08;;
34775;SDS011;20989;52.566;13.346;2023-03-03T07:54:41;1.30;;;0.98;;
34775;SDS011;20989;52.566;13.346;2023-03-03T07:57:44;0.93;;;0.85;;
34775;SDS011;20989;52.566;13.346;2023-03-03T08:04:15;0.85;;;0.85;;
34775;SDS011;20989;52.566;13.346;2023-03-03T08:07:20;0.75;;;0.75;;
34775;SDS011;20989;52.566;13.346;2023-03-03T08:10:28;3.05;;;1.05;;
34775;SDS011;20989;52.566;13.346;2023-03-03T08:13:37;0.70;;;0.70;;
34775;SDS011;20989;52.566;13.346;2023-03-03T08:16:40;1.10;;;1.10;;
34775;SDS011;20989;52.566;13.346;2023-03-03T08:19:41;0.90;;;0.90;;
34775;SDS011;20989;52.566;13.346;2023-03-03T08:22:42;0.98;;;0.95;;
34775;SDS011;20989;52.566;13.346;2023-03-03T08:25:42;1.48;;;0.90;;
34775;SDS011;20989;52.566;13.346;2023-03-03T08:28:44;0.77;;;0.77;;
34775;SDS011;20989;52.566;13.346;2023-03-03T08:31:45;0.80;;;0.80;;
34775;SDS011;20989;52.566;13.346;2023-03-03T08:34:45;1.00;;;1.00;;
34775;SDS011;20989;52.566;13.346;2023-03-03T08:37:46;0.90;;;0.90;;
34775;SDS011;20989;52.566;13.346;2023-03-03T08:40:47;1.10;;;1.10;;
34775;SDS011;20989;52.566;13.346;2023-03-03T08:43:48;0.77;;;0.77;;
34775;SDS011;20989;52.566;13.346;2023-03-03T08:46:48;1.10;;;1.00;;
34775;SDS011;20989;52.566;13.346;2023-03-03T08:49:49;0.98;;;0.98;;
34775;SDS011;20989;52.566;13.346;2023-03-03T08:52:50;0.88;;;0.88;;
34775;SDS011;20989;52.566;13.346;2023-03-03T08:55:51;0.80;;;0.80;;
34775;SDS011;20989;52.566;13.346;2023-03-03T08:58:51;0.90;;;0.90;;
34775;SDS011;20989;52.566;13.346;2023-03-03T09:01:52;0.88;;;0.88;;
34775;SDS011;20989;52.566;13.346;2023-03-03T09:04:54;1.00;;;1.00;;
34775;SDS011;20989;52.566;13.346;2023-03-03T09:07:54;0.80;;;0.80;;
34775;SDS011;20989;52.566;13.346;2023-03-03T09:10:56;0.90;;;0.90;;
34775;SDS011;20989;52.566;13.346;2023-03-03T09:14:13;0.82;;;0.82;;
34775;SDS011;20989;52.566;13.346;2023-03-03T09:17:18;0.77;;;0.77;;
34775;SDS011;20989;52.566;13.346;2023-03-03T09:23:42;1.17;;;1.02;;
34775;SDS011;20989;52.566;13.346;2023-03-03T09:26:48;0.73;;;0.73;;
34775;SDS011;20989;52.566;13.346;2023-03-03T09:29:48;0.73;;;0.73;;
34775;SDS011;20989;52.566;13.346;2023-03-03T09:32:50;1.17;;;0.65;;
34775;SDS011;20989;52.566;13.346;2023-03-03T09:36:03;0.95;;;0.95;;
34775;SDS011;20989;52.566;13.346;2023-03-03T09:42:23;0.80;;;0.80;;
34775;SDS011;20989;52.566;13.346;2023-03-03T09:49:18;0.90;;;0.90;;
34775;SDS011;20989;52.566;13.346;2023-03-03T09:52:29;0.90;;;0.90;;
34775;SDS011;20989;52.566;13.346;2023-03-03T10:02:12;0.93;;;0.93;;
34775;SDS011;20989;52.566;13.346;2023-03-03T10:08:51;0.90;;;0.90;;
34775;SDS011;20989;52.566;13.346;2023-03-03T10:18:43;1.27;;;1.17;;
34775;SDS011;20989;52.566;13.346;2023-03-03T10:25:25;2.30;;;1.10;;
34775;SDS011;20989;52.566;13.346;2023-03-03T10:42:14;5.13;;;1.35;;
34775;SDS011;20989;52.566;13.346;2023-03-03T10:44:52;1.30;;;0.88;;
34775;SDS011;20989;52.566;13.346;2023-03-03T10:48:05;3.53;;;0.80;;
34775;SDS011;20989;52.566;13.346;2023-03-03T10:51:38;1.73;;;1.00;;
34775;SDS011;20989;52.566;13.346;2023-03-03T11:08:26;1.40;;;1.20;;
34775;SDS011;20989;52.566;13.346;2023-03-03T11:11:32;1.95;;;1.38;;
34775;SDS011;20989;52.566;13.346;2023-03-03T11:17:56;5.10;;;1.45;;
34775;SDS011;20989;52.566;13.346;2023-03-03T11:21:07;3.08;;;1.38;;
34775;SDS011;20989;52.566;13.346;2023-03-03T11:41:31;4.65;;;2.47;;
34775;SDS011;20989;52.566;13.346;2023-03-03T11:45:10;2.10;;;1.95;;
34775;SDS011;20989;52.566;13.346;2023-03-03T11:48:20;2.45;;;1.92;;
34775;SDS011;20989;52.566;13.346;2023-03-03T11:51:39;1.98;;;1.67;;
34775;SDS011;20989;52.566;13.346;2023-03-03T12:08:15;1.80;;;1.70;;
34775;SDS011;20989;52.566;13.346;2023-03-03T12:11:40;1.80;;;1.70;;
34775;SDS011;20989;52.566;13.346;2023-03-03T12:18:29;1.67;;;1.58;;
34775;SDS011;20989;52.566;13.346;2023-03-03T12:21:54;1.58;;;1.45;;
34775;SDS011;20989;52.566;13.346;2023-03-03T12:28:56;3.70;;;1.60;;
34775;SDS011;20989;52.566;13.346;2023-03-03T12:32:18;1.05;;;1.02;;
34775;SDS011;20989;52.566;13.346;2023-03-03T12:42:22;2.10;;;1.60;;
34775;SDS011;20989;52.566;13.346;2023-03-03T12:45:24;1.80;;;1.70;;
34775;SDS011;20989;52.566;13.346;2023-03-03T12:48:59;5.33;;;1.80;;
34775;SDS011;20989;52.566;13.346;2023-03-03T12:55:33;19.42;;;5.53;;
34775;SDS011;20989;52.566;13.346;2023-03-03T13:18:14;6.65;;;5.45;;
34775;SDS011;20989;52.566;13.346;2023-03-03T13:21:35;6.50;;;4.70;;
34775;SDS011;20989;52.566;13.346;2023-03-03T13:24:50;8.15;;;4.75;;
34775;SDS011;20989;52.566;13.346;2023-03-03T13:27:56;4.65;;;4.25;;
34775;SDS011;20989;52.566;13.346;2023-03-03T13:34:14;5.53;;;3.35;;
34775;SDS011;20989;52.566;13.346;2023-03-03T13:37:25;6.30;;;3.15;;
34775;SDS011;20989;52.566;13.346;2023-03-03T13:40:50;3.78;;;3.20;;
34775;SDS011;20989;52.566;13.346;2023-03-03T14:01:05;6.13;;;2.55;;
34775;SDS011;20989;52.566;13.346;2023-03-03T14:11:06;9.40;;;3.53;;
34775;SDS011;20989;52.566;13.346;2023-03-03T14:20:55;15.30;;;6.50;;
34775;SDS011;20989;52.566;13.346;2023-03-03T14:27:20;8.70;;;4.63;;
34775;SDS011;20989;52.566;13.346;2023-03-03T14:33:32;8.10;;;4.20;;
34775;SDS011;20989;52.566;13.346;2023-03-03T14:36:35;4.53;;;4.07;;
34775;SDS011;20989;52.566;13.346;2023-03-03T14:39:40;4.07;;;3.78;;
34775;SDS011;20989;52.566;13.346;2023-03-03T14:45:52;7.28;;;3.17;;
34775;SDS011;20989;52.566;13.346;2023-03-03T14:48:55;4.88;;;2.92;;
34775;SDS011;20989;52.566;13.346;2023-03-03T14:55:30;6.28;;;2.53;;
34775;SDS011;20989;52.566;13.346;2023-03-03T14:58:39;2.47;;;2.28;;
34775;SDS011;20989;52.566;13.346;2023-03-03T15:01:42;2.65;;;2.20;;
34775;SDS011;20989;52.566;13.346;2023-03-03T15:04:44;6.50;;;3.00;;
34775;SDS011;20989;52.566;13.346;2023-03-03T15:07:46;2.80;;;2.20;;
34775;SDS011;20989;52.566;13.346;2023-03-03T15:10:53;2.83;;;2.22;;
34775;SDS011;20989;52.566;13.346;2023-03-03T15:14:03;2.95;;;2.42;;
34775;SDS011;20989;52.566;13.346;2023-03-03T15:17:18;4.00;;;2.10;;
34775;SDS011;20989;52.566;13.346;2023-03-03T15:27:18;2.58;;;2.38;;
34775;SDS011;20989;52.566;13.346;2023-03-03T15:40:09;2.03;;;1.90;;
34775;SDS011;20989;52.566;13.346;2023-03-03T15:43:42;2.42;;;1.67;;
34775;SDS011;20989;52.566;13.346;2023-03-03T15:47:43;2.20;;;2.10;;
34775;SDS011;20989;52.566;13.346;2023-03-03T15:57:24;1.90;;;1.77;;
34775;SDS011;20989;52.566;13.346;2023-03-03T16:00:34;2.03;;;1.83;;
34775;SDS011;20989;52.566;13.346;2023-03-03T16:03:56;1.92;;;1.83;;
34775;SDS011;20989;52.566;13.346;2023-03-03T16:07:14;1.98;;;1.88;;
34775;SDS011;20989;52.566;13.346;2023-03-03T16:17:25;1.80;;;1.70;;
34775;SDS011;20989;52.566;13.346;2023-03-03T16:27:27;1.65;;;1.52;;
34775;SDS011;20989;52.566;13.346;2023-03-03T16:30:51;1.90;;;1.80;;
34775;SDS011;20989;52.566;13.346;2023-03-03T16:34:06;1.50;;;1.40;;
34775;SDS011;20989;52.566;13.346;2023-03-03T16:37:31;4.28;;;1.90;;
34775;SDS011;20989;52.566;13.346;2023-03-03T16:40:44;1.70;;;1.60;;
34775;SDS011;20989;52.566;13.346;2023-03-03T16:54:15;1.70;;;1.58;;
34775;SDS011;20989;52.566;13.346;2023-03-03T16:57:46;1.67;;;1.58;;
34775;SDS011;20989;52.566;13.346;2023-03-03T17:01:04;1.45;;;1.33;;
34775;SDS011;20989;52.566;13.346;2023-03-03T17:11:10;1.45;;;1.38;;
34775;SDS011;20989;52.566;13.346;2023-03-03T17:20:59;1.20;;;1.20;;
34775;SDS011;20989;52.566;13.346;2023-03-03T17:24:38;1.50;;;1.40;;
34775;SDS011;20989;52.566;13.346;2023-03-03T17:28:02;1.20;;;1.20;;
34775;SDS011;20989;52.566;13.346;2023-03-03T17:45:13;1.25;;;1.25;;
34775;SDS011;20989;52.566;13.346;2023-03-03T17:58:46;1.30;;;1.30;;
34775;SDS011;20989;52.566;13.346;2023-03-03T18:09:04;1.30;;;1.30;;
34775;SDS011;20989;52.566;13.346;2023-03-03T18:12:24;1.75;;;1.33;;
34775;SDS011;20989;52.566;13.346;2023-03-03T18:15:45;1.50;;;1.40;;
34775;SDS011;20989;52.566;13.346;2023-03-03T18:19:10;1.88;;;1.77;;
34775;SDS011;20989;52.566;13.346;2023-03-03T18:25:59;1.15;;;1.15;;
34775;SDS011;20989;52.566;13.346;2023-03-03T18:32:25;1.77;;;1.67;;
34775;SDS011;20989;52.566;13.346;2023-03-03T18:35:55;1.50;;;1.40;;
34775;SDS011;20989;52.566;13.346;2023-03-03T18:39:13;1.20;;;1.20;;
34775;SDS011;20989;52.566;13.346;2023-03-03T18:48:19;1.38;;;1.27;;
34775;SDS011;20989;52.566;13.346;2023-03-03T18:51:49;1.60;;;1.50;;
34775;SDS011;20989;52.566;13.346;2023-03-03T18:55:24;1.50;;;1.40;;
34775;SDS011;20989;52.566;13.346;2023-03-03T19:04:33;1.25;;;1.25;;
34775;SDS011;20989;52.566;13.346;2023-03-03T19:07:45;1.70;;;1.60;;
34775;SDS011;20989;52.566;13.346;2023-03-03T19:11:01;1.88;;;1.65;;
34775;SDS011;20989;52.566;13.346;2023-03-03T19:14:19;1.85;;;1.75;;
34775;SDS011;20989;52.566;13.346;2023-03-03T19:20:52;1.50;;;1.40;;
34775;SDS011;20989;52.566;13.346;2023-03-03T19:24:02;1.88;;;1.77;;
34775;SDS011;20989;52.566;13.346;2023-03-03T19:27:25;1.50;;;1.40;;
34775;SDS011;20989;52.566;13.346;2023-03-03T19:30:47;1.50;;;1.40;;
34775;SDS011;20989;52.566;13.346;2023-03-03T19:37:08;1.38;;;1.27;;
34775;SDS011;20989;52.566;13.346;2023-03-03T19:47:01;2.42;;;1.33;;
34775;SDS011;20989;52.566;13.346;2023-03-03T19:56:51;1.35;;;1.27;;
34775;SDS011;20989;52.566;13.346;2023-03-03T20:00:12;1.30;;;1.20;;
34775;SDS011;20989;52.566;13.346;2023-03-03T20:06:46;1.60;;;1.50;;
34775;SDS011;20989;52.566;13.346;2023-03-03T20:13:24;1.27;;;1.27;;
34775;SDS011;20989;52.566;13.346;2023-03-03T20:16:39;1.55;;;1.45;;
34775;SDS011;20989;52.566;13.346;2023-03-03T20:26:25;1.67;;;1.58;;
34775;SDS011;20989;52.566;13.346;2023-03-03T20:29:37;1.75;;;1.65;;
34775;SDS011;20989;52.566;13.346;2023-03-03T20:33:06;1.33;;;1.27;;
34775;SDS011;20989;52.566;13.346;2023-03-03T20:53:03;1.40;;;1.30;;
34775;SDS011;20989;52.566;13.346;2023-03-03T20:59:36;1.13;;;1.13;;
34775;SDS011;20989;52.566;13.346;2023-03-03T21:03:13;1.00;;;1.00;;
34775;SDS011;20989;52.566;13.346;2023-03-03T21:06:37;1.65;;;1.55;;
34775;SDS011;20989;52.566;13.346;2023-03-03T21:09:39;1.23;;;1.23;;
34775;SDS011;20989;52.566;13.346;2023-03-03T21:12:40;1.33;;;1.25;;
34775;SDS011;20989;52.566;13.346;2023-03-03T21:15:41;1.30;;;1.30;;
34775;SDS011;20989;52.566;13.346;2023-03-03T21:18:42;1.48;;;1.38;;
34775;SDS011;20989;52.566;13.346;2023-03-03T21:21:59;2.35;;;1.50;;
34775;SDS011;20989;52.566;13.346;2023-03-03T21:25:00;0.95;;;0.95;;
34775;SDS011;20989;52.566;13.346;2023-03-03T21:31:23;1.30;;;1.23;;
34775;SDS011;20989;52.566;13.346;2023-03-03T21:34:24;1.63;;;1.50;;
34775;SDS011;20989;52.566;13.346;2023-03-03T21:41:00;1.58;;;1.48;;
34775;SDS011;20989;52.566;13.346;2023-03-03T21:44:01;1.15;;;1.15;;
34775;SDS011;20989;52.566;13.346;2023-03-03T21:47:40;1.77;;;1.35;;
34775;SDS011;20989;52.566;13.346;2023-03-03T21:50:41;1.80;;;1.52;;
34775;SDS011;20989;52.566;13.346;2023-03-03T21:53:43;1.73;;;1.63;;
34775;SDS011;20989;52.566;13.346;2023-03-03T21:56:44;1.40;;;1.30;;
34775;SDS011;20989;52.566;13.346;2023-03-03T21:59:47;1.60;;;1.50;;
34775;SDS011;20989;52.566;13.346;2023-03-03T22:02:47;1.80;;;1.70;;
34775;SDS011;20989;52.566;13.346;2023-03-03T22:05:48;1.52;;;1.42;;
34775;SDS011;20989;52.566;13.346;2023-03-03T22:08:48;1.85;;;1.75;;
34775;SDS011;20989;52.566;13.346;2023-03-03T22:11:49;1.63;;;1.52;;
34775;SDS011;20989;52.566;13.346;2023-03-03T22:14:50;1.50;;;1.40;;
34775;SDS011;20989;52.566;13.346;2023-03-03T22:17:51;1.70;;;1.60;;
34775;SDS011;20989;52.566;13.346;2023-03-03T22:20:51;1.60;;;1.50;;
34775;SDS011;20989;52.566;13.346;2023-03-03T22:23:52;1.48;;;1.38;;
34775;SDS011;20989;52.566;13.346;2023-03-03T22:26:53;1.55;;;1.45;;
34775;SDS011;20989;52.566;13.346;2023-03-03T22:29:54;1.77;;;1.67;;
34775;SDS011;20989;52.566;13.346;2023-03-03T22:32:54;1.23;;;1.23;;
34775;SDS011;20989;52.566;13.346;2023-03-03T22:35:55;1.40;;;1.30;;
34775;SDS011;20989;52.566;13.346;2023-03-03T22:38:56;1.40;;;1.30;;
34775;SDS011;20989;52.566;13.346;2023-03-03T22:41:56;1.40;;;1.30;;
34775;SDS011;20989;52.566;13.346;2023-03-03T22:44:57;1.40;;;1.30;;
34775;SDS011;20989;52.566;13.346;2023-03-03T22:47:58;1.20;;;1.15;;
34775;SDS011;20989;52.566;13.346;2023-03-03T22:50:58;1.60;;;1.50;;
34775;SDS011;20989;52.566;13.346;2023-03-03T22:53:59;1.55;;;1.45;;
34775;SDS011;20989;52.566;13.346;2023-03-03T22:57:00;1.63;;;1.52;;
34775;SDS011;20989;52.566;13.346;2023-03-03T23:00:00;1.52;;;1.45;;
34775;SDS011;20989;52.566;13.346;2023-03-03T23:03:01;1.52;;;1.40;;
34775;SDS011;20989;52.566;13.346;2023-03-03T23:06:02;1.40;;;1.30;;
34775;SDS011;20989;52.566;13.346;2023-03-03T23:09:03;1.67;;;1.58;;
34775;SDS011;20989;52.566;13.346;2023-03-03T23:12:04;1.77;;;1.67;;
34775;SDS011;20989;52.566;13.346;2023-03-03T23:15:05;1.77;;;1.67;;
34775;SDS011;20989;52.566;13.346;2023-03-03T23:18:12;1.65;;;1.55;;
34775;SDS011;20989;52.566;13.346;2023-03-03T23:21:12;1.55;;;1.45;;
34775;SDS011;20989;52.566;13.346;2023-03-03T23:24:13;1.63;;;1.52;;
34775;SDS011;20989;52.566;13.346;2023-03-03T23:27:14;1.25;;;1.23;;
34775;SDS011;20989;52.566;13.346;2023-03-03T23:30:15;1.70;;;1.60;;
34775;SDS011;20989;52.566;13.346;2023-03-03T23:33:17;2.95;;;2.05;;
34775;SDS011;20989;52.566;13.346;2023-03-03T23:36:18;1.88;;;1.77;;
34775;SDS011;20989;52.566;13.346;2023-03-03T23:39:19;3.03;;;1.90;;
34775;SDS011;20989;52.566;13.346;2023-03-03T23:42:19;1.60;;;1.50;;
34775;SDS011;20989;52.566;13.346;2023-03-03T23:45:20;1.95;;;1.85;;
34775;SDS011;20989;52.566;13.346;2023-03-03T23:48:21;1.48;;;1.42;;
34775;SDS011;20989;52.566;13.346;2023-03-03T23:51:22;2.20;;;2.03;;
34775;SDS011;20989;52.566;13.346;2023-03-03T23:54:22;2.42;;;2.28;;
34775;SDS011;20989;52.566;13.346;2023-03-03T23:57:23;1.65;;;1.55;;
